Duluth International Airport Duluth US
ICAO: KDLH
IATA: DLH
Category: Large
Scheduled Services: Yes

Elevation: 1428 ft
TransAlt. 18000 ft.

Airport Communications:
APP/DEP:125.45
ATIS:124.1
GND:121.9
ANG COMD POST:28.89
PTD:28.89
PRINCETON RDO:122.35
TWR:118.3
UNICOM:122.95

KDLH Zoom In..

If you have problems with the map follow the link
https://www.worldairports.se/pages/airport.php?
ICAO=KDLH

Runways:

(A) RW 03 length 5719 ft width 150 ft
---- / hdg 30

(B) RW 09 length 10162 ft width 150 ft
ILS 110.30 / hdg 90

(C) RW 21 length 5719 ft width 150 ft
---- / hdg 210

(D) RW 27 length 10162 ft width 150 ft
ILS 108.70 / hdg 270

Location; KDLH
Day. 18 / Time. 20.55 Zulu
* Altimeter: 30.27
* Temperature: -18° c. 0.4°f.
* Wind from: 010° Speed 07 kn.
Dewpoint: -26° c.
Visibility: 10 Statute Miles.
Clouds: Few 12000 ft.

KDLH 182055Z 01007KT 10SM FEW120 M18/M26 A3027 RMK AO2 SLP296 T11831261 57002


Wind From 010°
Speed 07 kn.

 
 
jpsmedia.com for Web Design worldairports.se 2019   terms of use